F46

Ralph M Hall / Rockwall Municipal Airport

Rockwall, Texas, USA
METAR KF46 151835Z AUTO 23008KT 10SM CLR 20/12 A2970 RMK AO2 T02010115
Observed Flight Rules
Feb-15 @ 18:35 UTC (35 minutes ago) Visual Flight Rules
Wind Visibility Clouds
230° at 8 knots 10 miles
  • Clear skies
Temperatures Readings
Current 20°C / 68°F
Dewpoint 12°C / 54°F
Humidity 60%
Altimeter 29.7" Hg
Pressure 1005.72 hPa
Elevation 176
METAR KF46 151835Z AUTO 23008KT 10SM CLR 20/12 A2970 RMK AO2 T02010115
Observed Flight Rules
Feb-15 @ 18:35 UTC
(35 minutes ago)
VFR
Wind Visibility
230° at 8 knots 10 miles
Clouds
  • Clear skies
Temperature Dewpoint
20°C / 68°F 12°C / 54°F
Humidity Altimeter Pressure
60% 29.7" Hg 1005.72 hPa